Hano, Arizona
Current Conditions -  °F | °C
As of 6:56 PM on Thursday 20 Nov 2014 (Local Time) from KINW Reporting Station
Clear Clear  
Wind Chill: 43°   Ceiling: Unl
Heat Index: 43°   Visibility: 10mi
Dew Point: 10°   Wind: 3mph
Humidity: 26%   Direction: 190°S
Pressure: 30.04"   Gusts: NA
Location:  35.9347°N, 110.453°W
Report Text: KINW 210156Z AUTO 19003KT 10SM CLR 06/M12 A3004 RMK AO2 SLP184 T00611122
Loading
Personal Weather Stations






























Interactive Weather Map New forecast layout! Learn more

10-Day Weather Forecast

Advertisements
Track Severe Weather on mobile